Time;durP1;ratioP1;P1;durP2;ratioP2;P2;SDS_P1;SDS_P2;PMS_P1;PMS_P2;Temp;Humidity;BMP_temperature;BMP_pressure;BME280_temperature;BME280_humidity;BME280_pressure;Samples;Min_cycle;Max_cycle;Signal;HPM_P1;HPM_P2
2023/08/02 00:02:24;;;;;;;5.80;3.35;;;21.30;56.10;;;;;;4986460;28;114818;-78
2023/08/02 00:04:53;;;;;;;4.10;2.80;;;21.30;56.10;;;;;;4986837;28;114129;-77
2023/08/02 00:07:20;;;;;;;4.05;3.03;;;21.30;56.10;;;;;;4987585;28;114258;-78
2023/08/02 00:09:47;;;;;;;4.75;3.10;;;21.30;56.00;;;;;;4984990;28;115388;-77
2023/08/02 00:12:14;;;;;;;4.53;2.80;;;21.30;55.90;;;;;;4985976;28;116128;-77
2023/08/02 00:14:41;;;;;;;5.28;3.05;;;21.30;55.80;;;;;;4985998;28;114054;-77
2023/08/02 00:17:08;;;;;;;5.13;2.72;;;21.30;55.80;;;;;;4985724;28;114368;-78
2023/08/02 00:19:36;;;;;;;5.13;3.00;;;21.40;55.60;;;;;;4985811;28;116237;-80
2023/08/02 00:22:03;;;;;;;4.88;2.95;;;21.30;55.60;;;;;;4986390;28;114624;-79
2023/08/02 00:24:30;;;;;;;4.82;2.97;;;21.30;55.70;;;;;;4987060;28;114217;-78
2023/08/02 00:26:57;;;;;;;5.70;2.97;;;21.30;55.70;;;;;;4986523;28;114358;-79
2023/08/02 00:29:24;;;;;;;4.90;2.85;;;21.40;55.60;;;;;;4985220;28;116364;-79
2023/08/02 00:31:51;;;;;;;4.32;3.10;;;21.40;55.50;;;;;;4968890;28;116278;-79
2023/08/02 00:34:18;;;;;;;4.03;2.97;;;21.40;55.40;;;;;;4986431;28;114518;-79
2023/08/02 00:36:45;;;;;;;4.30;2.83;;;21.30;55.50;;;;;;4986556;28;114156;-77
2023/08/02 00:39:13;;;;;;;3.85;2.90;;;21.30;55.50;;;;;;4985548;28;114903;-78
2023/08/02 00:41:40;;;;;;;4.07;2.85;;;21.40;55.50;;;;;;4968134;28;114873;-77
2023/08/02 00:44:07;;;;;;;4.25;2.83;;;21.40;55.50;;;;;;4987370;28;114015;-78
2023/08/02 00:46:34;;;;;;;4.38;2.90;;;21.30;55.40;;;;;;4986146;28;114305;-78
2023/08/02 00:49:01;;;;;;;3.83;2.55;;;21.40;55.40;;;;;;4984569;28;116222;-78
2023/08/02 00:51:30;;;;;;;4.93;2.58;;;21.30;55.40;;;;;;4984456;28;114629;-78
2023/08/02 00:54:02;;;;;;;4.32;2.95;;;21.20;55.60;;;;;;4968350;28;114355;-77
2023/08/02 00:56:32;;;;;;;5.43;3.08;;;21.20;55.60;;;;;;4985730;28;114411;-78
2023/08/02 00:58:59;;;;;;;5.22;2.88;;;21.20;55.80;;;;;;4985555;28;115473;-79
2023/08/02 01:01:26;;;;;;;5.75;2.80;;;21.10;55.90;;;;;;4984391;28;114636;-77
2023/08/02 01:03:53;;;;;;;5.70;3.22;;;21.10;55.70;;;;;;4968830;28;114635;-78
2023/08/02 01:06:43;;;;;;;4.90;2.80;;;21.00;55.50;;;;;;4984731;28;114370;-77
2023/08/02 01:09:50;;;;;;;4.97;2.70;;;20.70;56.20;;;;;;4984460;28;115038;-78
2023/08/02 01:12:17;;;;;;;5.53;2.83;;;20.70;56.70;;;;;;4980662;28;114717;-79
2023/08/02 01:14:49;;;;;;;5.28;2.78;;;20.70;56.90;;;;;;4968627;28;114234;-78
2023/08/02 01:17:24;;;;;;;5.55;2.85;;;20.80;56.70;;;;;;4969481;28;114125;-77
2023/08/02 01:19:54;;;;;;;4.00;2.85;;;20.80;56.60;;;;;;4968036;28;114923;-78
2023/08/02 01:22:21;;;;;;;5.63;2.70;;;20.80;56.50;;;;;;4985712;28;114588;-77
2023/08/02 01:24:48;;;;;;;5.10;3.05;;;20.90;56.40;;;;;;4986186;28;114285;-78
2023/08/02 01:27:18;;;;;;;4.72;2.80;;;20.90;56.20;;;;;;4984648;28;114298;-78
2023/08/02 01:29:49;;;;;;;4.10;3.03;;;21.00;56.10;;;;;;4984149;28;114926;-77
2023/08/02 01:32:17;;;;;;;4.60;2.85;;;21.00;55.90;;;;;;4968301;28;114612;-78
2023/08/02 01:34:45;;;;;;;5.20;3.05;;;21.00;56.00;;;;;;4968971;28;114769;-77
2023/08/02 01:37:12;;;;;;;4.13;3.20;;;21.10;55.80;;;;;;4984942;28;114349;-78
2023/08/02 01:39:39;;;;;;;4.80;3.13;;;21.00;55.70;;;;;;4983599;28;115007;-77
2023/08/02 01:42:06;;;;;;;4.60;2.63;;;21.00;55.80;;;;;;4966723;28;118563;-77
2023/08/02 01:44:33;;;;;;;5.00;3.30;;;21.00;55.80;;;;;;4985299;28;114311;-77
2023/08/02 01:47:01;;;;;;;6.30;3.28;;;21.00;55.80;;;;;;4984725;28;114227;-77
2023/08/02 01:49:28;;;;;;;5.45;2.70;;;21.00;55.80;;;;;;4984112;28;118642;-77
2023/08/02 01:51:55;;;;;;;4.28;2.78;;;21.00;55.90;;;;;;4983435;28;114720;-78
2023/08/02 01:54:22;;;;;;;4.63;3.00;;;21.00;55.90;;;;;;4984580;28;114287;-78
2023/08/02 01:56:49;;;;;;;4.13;2.90;;;21.00;55.70;;;;;;4984430;28;114126;-77
2023/08/02 01:59:16;;;;;;;4.30;2.90;;;20.90;55.70;;;;;;4984578;28;114879;-79
2023/08/02 02:01:43;;;;;;;4.70;3.00;;;21.00;55.80;;;;;;4987531;28;115691;-77
2023/08/02 02:04:11;;;;;;;6.32;3.20;;;20.90;55.70;;;;;;4971468;28;114509;-78
2023/08/02 02:06:38;;;;;;;5.15;3.38;;;21.00;55.50;;;;;;4987782;28;114142;-78
2023/08/02 02:09:05;;;;;;;4.03;2.92;;;21.00;55.40;;;;;;4986524;28;115019;-78
2023/08/02 02:11:32;;;;;;;4.57;3.00;;;21.00;55.70;;;;;;4988633;28;114625;-78
2023/08/02 02:13:59;;;;;;;4.32;2.72;;;21.00;55.60;;;;;;4989948;28;114130;-79
2023/08/02 02:16:26;;;;;;;5.85;2.83;;;21.00;55.60;;;;;;4989171;28;114343;-78
2023/08/02 02:18:54;;;;;;;6.00;3.10;;;21.00;55.60;;;;;;4986646;28;115884;-77
2023/08/02 02:21:21;;;;;;;5.00;2.90;;;21.00;55.40;;;;;;4986934;28;114633;-78
2023/08/02 02:23:48;;;;;;;3.97;2.70;;;21.00;55.40;;;;;;4987990;28;114300;-79
2023/08/02 02:26:17;;;;;;;5.38;2.80;;;21.00;55.50;;;;;;4989799;28;114212;-78
2023/08/02 02:28:44;;;;;;;5.38;3.15;;;21.00;55.40;;;;;;4954683;28;116012;-78
2023/08/02 02:31:11;;;;;;;5.35;2.97;;;21.00;55.10;;;;;;4986699;28;114675;-77
2023/08/02 02:33:38;;;;;;;4.65;3.00;;;21.00;55.30;;;;;;4988238;28;114504;-78
2023/08/02 02:36:06;;;;;;;4.97;3.10;;;21.00;55.40;;;;;;4988664;28;114359;-78
2023/08/02 02:38:33;;;;;;;4.55;2.88;;;21.00;55.20;;;;;;4987946;28;114967;-77
2023/08/02 02:41:00;;;;;;;5.40;2.63;;;21.00;55.40;;;;;;4987935;28;115334;-77
2023/08/02 02:43:27;;;;;;;4.63;3.00;;;21.00;55.30;;;;;;4987168;28;114245;-78
2023/08/02 02:45:55;;;;;;;4.20;3.00;;;20.90;54.90;;;;;;4970785;28;114580;-78
2023/08/02 02:48:24;;;;;;;5.50;2.72;;;20.90;55.10;;;;;;4986443;28;115027;-79
2023/08/02 02:50:53;;;;;;;3.85;2.60;;;20.90;55.30;;;;;;4986641;28;114715;-78
2023/08/02 02:53:22;;;;;;;3.97;2.58;;;20.90;55.30;;;;;;4970967;28;114343;-77
2023/08/02 02:55:51;;;;;;;4.72;2.72;;;20.80;55.40;;;;;;4988110;28;114242;-79
2023/08/02 02:58:18;;;;;;;3.72;2.60;;;20.90;55.40;;;;;;4987150;28;114896;-77
2023/08/02 03:00:45;;;;;;;4.18;2.63;;;20.90;55.20;;;;;;4987003;28;115408;-78
2023/08/02 03:03:12;;;;;;;4.38;2.75;;;20.90;55.30;;;;;;4988364;28;114310;-78
2023/08/02 03:05:39;;;;;;;4.53;2.90;;;20.90;55.30;;;;;;4988845;28;114765;-77
2023/08/02 03:08:06;;;;;;;3.88;2.55;;;20.80;55.20;;;;;;4987307;28;115398;-78
2023/08/02 03:10:33;;;;;;;4.05;2.50;;;20.80;55.50;;;;;;4986716;28;114713;-79
2023/08/02 03:13:01;;;;;;;3.65;2.50;;;20.80;55.40;;;;;;4987624;28;114059;-77
2023/08/02 03:15:28;;;;;;;3.15;2.25;;;20.80;55.50;;;;;;4988509;28;114320;-78
2023/08/02 03:17:55;;;;;;;3.70;2.60;;;20.80;55.40;;;;;;4988016;28;116002;-78
2023/08/02 03:20:22;;;;;;;3.95;2.53;;;20.80;55.10;;;;;;4987554;28;114611;-79
2023/08/02 03:22:49;;;;;;;4.03;2.90;;;20.80;55.30;;;;;;4987647;28;114268;-78
2023/08/02 03:25:16;;;;;;;3.55;2.35;;;20.80;55.30;;;;;;4986933;28;114170;-78
2023/08/02 03:27:43;;;;;;;4.35;2.50;;;20.80;55.20;;;;;;4986929;28;115142;-77
2023/08/02 03:30:10;;;;;;;4.07;2.50;;;20.90;55.20;;;;;;4986168;28;115027;-78
2023/08/02 03:32:37;;;;;;;3.83;2.30;;;21.00;55.20;;;;;;4987818;28;114178;-79
2023/08/02 03:35:04;;;;;;;5.13;2.78;;;21.00;55.10;;;;;;4986779;28;114182;-78
2023/08/02 03:37:32;;;;;;;4.10;2.70;;;21.00;54.90;;;;;;4985184;28;116082;-77
2023/08/02 03:39:59;;;;;;;4.18;2.40;;;21.00;54.70;;;;;;4987248;28;114600;-78
2023/08/02 03:42:27;;;;;;;3.95;2.70;;;20.90;54.70;;;;;;4970040;28;115147;-78
2023/08/02 03:44:54;;;;;;;3.50;2.50;;;21.00;54.80;;;;;;4987465;28;114490;-78
2023/08/02 03:47:21;;;;;;;3.85;2.33;;;21.00;54.40;;;;;;4985945;28;115126;-79
2023/08/02 03:49:48;;;;;;;5.85;2.80;;;20.90;54.90;;;;;;4968890;28;115745;-78
2023/08/02 03:52:15;;;;;;;4.03;2.60;;;21.00;54.70;;;;;;4987574;28;114432;-78
2023/08/02 03:54:42;;;;;;;3.95;2.33;;;21.10;54.70;;;;;;4986270;28;114248;-79
2023/08/02 03:57:09;;;;;;;3.95;2.30;;;21.20;54.30;;;;;;4987221;28;115328;-79
2023/08/02 03:59:36;;;;;;;4.78;2.78;;;21.20;54.40;;;;;;4968991;28;114695;-78
2023/08/02 04:02:03;;;;;;;3.63;2.22;;;21.30;53.70;;;;;;4987596;28;114361;-79
2023/08/02 04:04:30;;;;;;;5.30;2.83;;;21.20;54.10;;;;;;4986865;28;114237;-78
2023/08/02 04:06:57;;;;;;;4.05;2.58;;;21.20;54.10;;;;;;4986365;28;115467;-77
2023/08/02 04:09:24;;;;;;;4.18;2.55;;;21.20;54.20;;;;;;4986366;28;114641;-78
2023/08/02 04:11:51;;;;;;;3.92;2.65;;;21.30;54.40;;;;;;4986627;28;114304;-77
2023/08/02 04:14:18;;;;;;;5.90;2.97;;;21.60;54.10;;;;;;4986004;28;114490;-77
2023/08/02 04:16:45;;;;;;;6.05;2.80;;;21.80;53.70;;;;;;4986119;28;115002;-77
2023/08/02 04:19:13;;;;;;;7.97;4.47;;;22.10;53.20;;;;;;4984874;28;114763;-77
2023/08/02 04:21:40;;;;;;;4.97;3.20;;;22.30;52.80;;;;;;4987927;28;114282;-78
2023/08/02 04:24:07;;;;;;;8.02;3.95;;;22.50;52.10;;;;;;4987306;28;114104;-78
2023/08/02 04:26:34;;;;;;;6.57;3.85;;;22.70;52.00;;;;;;4985910;28;114898;-78
2023/08/02 04:29:01;;;;;;;6.93;4.88;;;22.80;51.50;;;;;;4986146;28;114662;-79
2023/08/02 04:31:28;;;;;;;5.57;4.20;;;22.90;51.20;;;;;;4985612;28;114156;-78
2023/08/02 04:33:56;;;;;;;7.47;4.65;;;22.90;50.90;;;;;;4986555;28;114293;-78
2023/08/02 04:36:23;;;;;;;8.73;4.72;;;22.90;50.90;;;;;;4985386;28;114865;-77
2023/08/02 04:38:53;;;;;;;9.70;4.57;;;22.90;50.80;;;;;;4984640;28;114714;-78
2023/08/02 04:41:20;;;;;;;6.78;4.47;;;23.00;50.80;;;;;;4986572;28;114092;-77
2023/08/02 04:43:47;;;;;;;6.93;4.32;;;23.00;50.60;;;;;;4986466;28;114541;-78
2023/08/02 04:46:15;;;;;;;6.80;4.65;;;23.00;50.60;;;;;;4985844;28;114853;-77
2023/08/02 04:48:42;;;;;;;7.55;4.65;;;23.10;50.50;;;;;;4985580;28;115262;-78
2023/08/02 04:51:09;;;;;;;8.00;4.95;;;22.90;50.60;;;;;;4986773;28;114302;-78
2023/08/02 04:53:37;;;;;;;6.28;4.13;;;22.90;50.80;;;;;;4985876;28;114221;-78
2023/08/02 04:56:08;;;;;;;8.32;5.00;;;22.80;50.80;;;;;;4986055;28;115674;-80
2023/08/02 04:58:35;;;;;;;8.80;4.85;;;22.80;51.00;;;;;;4986263;28;116985;-79
2023/08/02 05:01:04;;;;;;;8.05;4.30;;;22.70;51.10;;;;;;4988556;28;114279;-78
2023/08/02 05:03:32;;;;;;;8.00;4.63;;;22.60;51.10;;;;;;4985869;28;114382;-78
2023/08/02 05:06:00;;;;;;;8.32;5.20;;;22.60;51.30;;;;;;4984582;28;118007;-79
2023/08/02 05:08:32;;;;;;;14.75;7.45;;;22.50;51.30;;;;;;4984868;28;114672;-78
2023/08/02 05:10:59;;;;;;;11.65;4.93;;;22.50;51.60;;;;;;4988017;28;114129;-78
2023/08/02 05:13:26;;;;;;;12.98;7.32;;;22.70;51.30;;;;;;4990392;28;114243;-78
2023/08/02 05:15:53;;;;;;;12.27;6.45;;;22.70;51.20;;;;;;4985729;28;116090;-78
2023/08/02 05:18:21;;;;;;;14.23;7.93;;;22.70;51.10;;;;;;4985748;28;114651;-78
2023/08/02 05:20:48;;;;;;;11.30;7.50;;;22.70;50.90;;;;;;4989525;28;114259;-78
2023/08/02 05:23:15;;;;;;;13.88;7.15;;;22.80;50.80;;;;;;4985004;28;114410;-78
2023/08/02 05:25:42;;;;;;;12.20;6.40;;;22.80;50.70;;;;;;4984670;28;115675;-78
2023/08/02 05:28:09;;;;;;;15.45;7.22;;;22.80;50.60;;;;;;4984143;28;114578;-77
2023/08/02 05:30:37;;;;;;;13.20;6.90;;;22.80;50.50;;;;;;4968394;28;114417;-79
2023/08/02 05:33:06;;;;;;;12.85;6.95;;;22.80;50.40;;;;;;4986154;28;114051;-79
2023/08/02 05:35:33;;;;;;;11.50;5.75;;;22.90;50.20;;;;;;4969741;28;116328;-79
2023/08/02 05:38:01;;;;;;;9.90;5.45;;;22.80;50.30;;;;;;4988361;28;115792;-77
2023/08/02 05:40:29;;;;;;;10.68;5.18;;;22.80;50.60;;;;;;4989926;28;113996;-78
2023/08/02 05:42:56;;;;;;;10.90;5.25;;;22.80;50.70;;;;;;4988094;28;114408;-79
2023/08/02 05:45:23;;;;;;;8.88;4.32;;;23.00;50.40;;;;;;4987306;28;114802;-77
2023/08/02 05:47:52;;;;;;;8.68;4.30;;;23.10;50.40;;;;;;4988310;28;114797;-78
2023/08/02 05:50:19;;;;;;;6.70;3.70;;;23.30;49.70;;;;;;4988637;28;114229;-77
2023/08/02 05:52:46;;;;;;;7.40;4.07;;;23.50;49.40;;;;;;4989389;28;114043;-78
2023/08/02 05:55:14;;;;;;;9.60;3.60;;;23.70;49.10;;;;;;4987971;28;114950;-79
2023/08/02 05:57:41;;;;;;;8.43;3.00;;;23.80;48.50;;;;;;4988212;28;114708;-79
2023/08/02 06:00:09;;;;;;;5.00;2.72;;;24.00;48.10;;;;;;4989069;28;114207;-78
2023/08/02 06:02:37;;;;;;;7.10;3.10;;;24.20;47.30;;;;;;4988995;28;114541;-79
2023/08/02 06:05:05;;;;;;;7.35;3.00;;;24.20;47.70;;;;;;4988086;28;114951;-79
2023/08/02 06:07:32;;;;;;;5.55;2.58;;;24.30;47.30;;;;;;4986971;28;116062;-80
2023/08/02 06:09:59;;;;;;;5.03;2.50;;;24.30;46.70;;;;;;4988764;28;114130;-78
2023/08/02 06:12:26;;;;;;;5.53;2.63;;;24.50;46.80;;;;;;4989191;28;114343;-78
2023/08/02 06:14:53;;;;;;;4.47;2.40;;;24.70;46.70;;;;;;4986100;28;116365;-79
2023/08/02 06:17:20;;;;;;;5.30;2.10;;;24.80;45.90;;;;;;4987895;28;116983;-78
2023/08/02 06:19:47;;;;;;;5.90;2.00;;;24.90;45.00;;;;;;4987879;28;114384;-77
2023/08/02 06:22:15;;;;;;;6.35;1.92;;;25.10;44.10;;;;;;4988797;28;114290;-79
2023/08/02 06:24:43;;;;;;;6.35;2.20;;;25.20;44.20;;;;;;4987891;28;115043;-80
2023/08/02 06:27:10;;;;;;;4.38;1.92;;;25.30;43.70;;;;;;4986410;28;114732;-78
2023/08/02 06:29:37;;;;;;;3.90;2.50;;;25.30;43.50;;;;;;4987329;28;114220;-79
2023/08/02 06:32:05;;;;;;;3.90;2.05;;;25.40;43.20;;;;;;4988625;28;114191;-79
2023/08/02 06:34:32;;;;;;;3.72;1.80;;;25.50;42.90;;;;;;4987383;28;115440;-79
2023/08/02 06:36:59;;;;;;;4.45;2.08;;;25.60;42.70;;;;;;4986904;28;114711;-78
2023/08/02 06:39:26;;;;;;;3.25;1.98;;;25.70;42.40;;;;;;4987983;28;114325;-79
2023/08/02 06:41:53;;;;;;;4.47;2.05;;;25.70;42.50;;;;;;4987051;28;114404;-78
2023/08/02 06:44:21;;;;;;;7.05;3.00;;;25.70;42.20;;;;;;4987496;28;115240;-78
2023/08/02 06:46:48;;;;;;;3.70;1.75;;;25.70;42.70;;;;;;4984951;28;114732;-80
2023/08/02 06:49:16;;;;;;;4.50;2.28;;;25.70;42.00;;;;;;4988054;28;114674;-79
2023/08/02 06:51:43;;;;;;;3.60;2.15;;;25.80;42.00;;;;;;4988405;28;114112;-78
2023/08/02 06:54:12;;;;;;;5.38;2.13;;;25.70;42.40;;;;;;4987067;28;116189;-78
2023/08/02 06:56:39;;;;;;;5.47;2.25;;;25.50;42.30;;;;;;4986468;28;114838;-80
2023/08/02 06:59:06;;;;;;;3.33;2.08;;;25.40;42.40;;;;;;4987488;28;114621;-79
2023/08/02 07:01:33;;;;;;;3.97;2.47;;;25.40;42.80;;;;;;4987491;28;114044;-80
2023/08/02 07:04:00;;;;;;;4.47;1.90;;;25.50;42.40;;;;;;4986870;28;115587;-79
2023/08/02 07:06:27;;;;;;;3.85;2.20;;;25.60;42.90;;;;;;4985988;28;115207;-79
2023/08/02 07:08:55;;;;;;;4.43;2.60;;;25.70;43.00;;;;;;4988031;28;114181;-79
2023/08/02 07:11:22;;;;;;;3.13;2.10;;;25.70;42.80;;;;;;4988206;28;114156;-79
2023/08/02 07:14:09;;;;;;;4.10;2.60;;;25.70;42.70;;;;;;4986295;28;114901;-79
2023/08/02 07:16:36;;;;;;;5.07;2.20;;;25.60;42.90;;;;;;4986997;28;115407;-79
2023/08/02 07:19:03;;;;;;;4.10;2.20;;;25.70;43.00;;;;;;4987825;28;114077;-78
2023/08/02 07:21:30;;;;;;;3.97;1.80;;;25.70;42.80;;;;;;4987048;28;114480;-78
2023/08/02 07:23:57;;;;;;;5.13;2.00;;;25.80;42.50;;;;;;4985651;28;114840;-79
2023/08/02 07:26:24;;;;;;;4.53;2.25;;;25.80;42.50;;;;;;4987009;28;114612;-79
2023/08/02 07:28:52;;;;;;;4.45;2.30;;;25.80;41.90;;;;;;4987097;28;114172;-78
2023/08/02 07:31:19;;;;;;;4.10;1.77;;;25.80;42.20;;;;;;4987473;28;114614;-79
2023/08/02 07:33:46;;;;;;;6.07;2.22;;;25.80;42.60;;;;;;4986551;28;115460;-78
2023/08/02 07:36:18;;;;;;;3.45;1.90;;;25.70;42.60;;;;;;4986251;28;114871;-79
2023/08/02 07:38:45;;;;;;;3.28;2.05;;;25.70;42.60;;;;;;4987615;28;114585;-78
2023/08/02 07:41:12;;;;;;;2.78;1.60;;;25.70;42.30;;;;;;4987404;28;114357;-78
2023/08/02 07:43:40;;;;;;;3.90;1.95;;;25.60;42.80;;;;;;4986479;28;115228;-79
2023/08/02 07:46:19;;;;;;;2.95;1.80;;;25.60;42.80;;;;;;4986838;28;114656;-78
2023/08/02 07:48:49;;;;;;;3.20;1.65;;;25.70;42.80;;;;;;4986014;28;114822;-78
2023/08/02 07:51:16;;;;;;;5.68;1.90;;;25.60;42.70;;;;;;4986111;28;114301;-78
2023/08/02 07:53:43;;;;;;;4.75;1.80;;;25.70;42.40;;;;;;4985743;28;114997;-78
2023/08/02 07:56:10;;;;;;;2.90;1.48;;;25.70;42.20;;;;;;4986200;28;114344;-78
2023/08/02 07:58:37;;;;;;;4.13;1.80;;;25.70;42.80;;;;;;4987143;28;114111;-79
2023/08/02 08:01:06;;;;;;;3.95;1.90;;;25.70;42.60;;;;;;4986127;28;114395;-79
2023/08/02 08:03:33;;;;;;;4.65;2.00;;;25.70;42.50;;;;;;4986817;28;115189;-78
2023/08/02 08:06:00;;;;;;;3.78;1.88;;;25.70;42.80;;;;;;4985232;28;114708;-78
2023/08/02 08:08:27;;;;;;;4.47;2.00;;;25.70;43.30;;;;;;4953588;28;115224;-78
2023/08/02 08:10:54;;;;;;;4.07;1.83;;;25.80;42.40;;;;;;4987474;28;114529;-78
2023/08/02 08:13:21;;;;;;;2.90;1.85;;;25.70;42.90;;;;;;4986398;28;114999;-79
2023/08/02 08:15:48;;;;;;;2.83;1.52;;;25.60;42.50;;;;;;4985387;28;114680;-77
2023/08/02 08:18:15;;;;;;;3.13;1.60;;;25.70;42.00;;;;;;4987379;28;114068;-80
2023/08/02 08:20:43;;;;;;;3.35;1.90;;;25.60;41.80;;;;;;4987629;28;114317;-78
2023/08/02 08:23:10;;;;;;;3.70;1.73;;;25.60;42.30;;;;;;4986564;28;114983;-78
2023/08/02 08:25:37;;;;;;;3.58;1.75;;;25.60;42.00;;;;;;4986063;28;114847;-79
2023/08/02 08:28:04;;;;;;;3.70;1.95;;;25.50;41.60;;;;;;4987240;28;114239;-79
2023/08/02 08:30:31;;;;;;;4.18;1.85;;;25.50;42.00;;;;;;4987154;28;114294;-79
2023/08/02 08:32:59;;;;;;;3.38;2.13;;;25.50;42.10;;;;;;4986098;28;115433;-78
2023/08/02 08:35:26;;;;;;;3.80;2.17;;;25.50;42.40;;;;;;4984939;28;114491;-77
2023/08/02 08:37:53;;;;;;;3.72;1.50;;;25.60;42.60;;;;;;4987007;28;114099;-76
2023/08/02 08:40:20;;;;;;;3.00;1.52;;;25.60;42.00;;;;;;4985643;28;114478;-79
2023/08/02 08:42:51;;;;;;;3.13;1.52;;;25.70;41.50;;;;;;4985633;28;114871;-77
2023/08/02 08:45:22;;;;;;;2.63;1.50;;;25.70;41.50;;;;;;4984899;28;114770;-78
2023/08/02 08:47:50;;;;;;;3.35;1.92;;;25.70;41.50;;;;;;4969343;28;114234;-79
2023/08/02 08:50:17;;;;;;;4.28;1.55;;;25.70;41.10;;;;;;4986592;28;114360;-79
2023/08/02 08:52:46;;;;;;;6.18;1.98;;;25.70;40.90;;;;;;4985707;28;114685;-78
2023/08/02 08:55:14;;;;;;;2.78;1.50;;;25.70;41.40;;;;;;4984473;28;115513;-78
2023/08/02 08:57:42;;;;;;;2.75;1.45;;;25.70;40.70;;;;;;4986455;28;114243;-77
2023/08/02 09:00:10;;;;;;;3.10;1.58;;;25.80;41.10;;;;;;4986024;28;114391;-79
2023/08/02 09:02:38;;;;;;;3.10;1.77;;;25.80;40.70;;;;;;4985473;28;117009;-79
2023/08/02 09:05:06;;;;;;;4.28;1.70;;;25.80;40.20;;;;;;4984354;28;114827;-78
2023/08/02 09:07:33;;;;;;;4.38;2.50;;;25.80;40.00;;;;;;4984431;28;114237;-78
2023/08/02 09:10:00;;;;;;;3.20;1.60;;;25.80;39.70;;;;;;4984169;28;114075;-78
2023/08/02 09:12:29;;;;;;;2.50;1.60;;;25.90;40.60;;;;;;4986845;28;114980;-79
2023/08/02 09:15:00;;;;;;;4.38;1.70;;;25.90;39.70;;;;;;4986779;28;115113;-78
2023/08/02 09:17:27;;;;;;;3.53;1.25;;;25.80;39.80;;;;;;4985044;28;114398;-78
2023/08/02 09:20:08;;;;;;;3.95;1.50;;;25.80;40.10;;;;;;4985187;28;114205;-78
2023/08/02 09:22:35;;;;;;;3.13;1.50;;;25.80;39.60;;;;;;4984141;28;115110;-80
2023/08/02 09:25:04;;;;;;;3.70;1.55;;;25.70;39.60;;;;;;4985418;28;115945;-79
2023/08/02 09:27:31;;;;;;;2.83;1.30;;;25.80;40.00;;;;;;4984985;28;114325;-78
2023/08/02 09:29:58;;;;;;;4.15;1.20;;;25.80;39.90;;;;;;4986108;28;114223;-78
2023/08/02 09:32:26;;;;;;;3.25;1.58;;;25.80;40.10;;;;;;4984404;28;116888;-79
2023/08/02 09:34:55;;;;;;;2.60;1.40;;;25.80;39.70;;;;;;4983986;28;117687;-78
2023/08/02 09:37:33;;;;;;;4.55;1.10;;;25.80;39.70;;;;;;4984449;28;114308;-79
2023/08/02 09:40:00;;;;;;;4.57;1.55;;;25.80;38.40;;;;;;4985332;28;114481;-79
2023/08/02 09:42:55;;;;;;;2.42;1.13;;;25.80;38.40;;;;;;4985213;28;114859;-78
2023/08/02 09:45:53;;;;;;;2.42;1.20;;;25.80;37.90;;;;;;4925221;28;117350;-81
2023/08/02 09:48:20;;;;;;;3.10;1.17;;;25.80;37.70;;;;;;4928038;28;114564;-79
2023/08/02 09:50:55;;;;;;;2.55;1.23;;;25.80;36.70;;;;;;4928442;28;114357;-79
2023/08/02 09:53:24;;;;;;;3.40;1.45;;;25.80;37.30;;;;;;4943428;28;116329;-79
2023/08/02 09:55:51;;;;;;;2.63;1.20;;;25.80;37.20;;;;;;4926759;28;115107;-78
2023/08/02 09:58:18;;;;;;;1.75;0.93;;;25.80;37.40;;;;;;4928001;28;114311;-78
2023/08/02 10:00:45;;;;;;;3.22;1.25;;;25.80;37.60;;;;;;4928039;28;114411;-76
2023/08/02 10:03:12;;;;;;;3.10;1.67;;;25.90;37.60;;;;;;4943298;28;116092;-78
2023/08/02 10:05:51;;;;;;;2.75;1.10;;;25.80;37.30;;;;;;4943061;28;115066;-79
2023/08/02 10:08:18;;;;;;;2.75;1.25;;;25.70;37.80;;;;;;4912100;28;114473;-79
2023/08/02 10:10:46;;;;;;;2.03;1.20;;;25.70;38.30;;;;;;4943887;28;114598;-78
2023/08/02 10:13:13;;;;;;;3.35;1.35;;;25.70;38.80;;;;;;4927209;28;114946;-78
2023/08/02 10:15:40;;;;;;;2.13;1.00;;;25.80;38.70;;;;;;4927056;28;114690;-79
2023/08/02 10:18:08;;;;;;;2.55;1.13;;;25.80;38.50;;;;;;4982062;28;114592;-79
2023/08/02 10:20:35;;;;;;;3.78;1.10;;;25.80;37.50;;;;;;4985472;28;114178;-79
2023/08/02 10:23:03;;;;;;;2.05;1.00;;;25.90;36.70;;;;;;4986067;28;115030;-78
2023/08/02 10:25:32;;;;;;;2.63;1.30;;;25.80;36.20;;;;;;4987808;28;115394;-78
2023/08/02 10:27:59;;;;;;;2.78;1.05;;;25.80;36.50;;;;;;4987623;28;114575;-79
2023/08/02 10:30:27;;;;;;;2.45;1.00;;;25.80;36.40;;;;;;4988756;28;114265;-78
2023/08/02 10:33:13;;;;;;;2.17;1.20;;;25.80;37.00;;;;;;4986777;28;115029;-79
2023/08/02 10:36:00;;;;;;;3.50;1.17;;;25.90;36.70;;;;;;4987125;28;114409;-77
2023/08/02 10:38:49;;;;;;;1.95;0.93;;;25.90;37.00;;;;;;4987287;28;114235;-78
2023/08/02 10:41:17;;;;;;;3.25;1.45;;;25.90;36.60;;;;;;4988429;28;114428;-79
2023/08/02 10:43:53;;;;;;;3.28;1.17;;;25.90;36.30;;;;;;4987744;28;114821;-78
2023/08/02 10:46:27;;;;;;;2.08;1.08;;;26.00;36.60;;;;;;4987723;28;114557;-78
2023/08/02 10:48:56;;;;;;;2.70;1.15;;;25.90;36.40;;;;;;4988074;28;114066;-78
2023/08/02 10:51:30;;;;;;;3.65;1.27;;;26.00;36.80;;;;;;4970798;28;114373;-79
2023/08/02 10:54:25;;;;;;;3.80;1.30;;;26.00;37.60;;;;;;4988086;28;115842;-77
2023/08/02 10:56:56;;;;;;;3.20;1.42;;;26.10;37.60;;;;;;4987464;28;114682;-78
2023/08/02 10:59:23;;;;;;;3.00;1.20;;;25.90;37.30;;;;;;4989953;28;114096;-77
2023/08/02 11:01:57;;;;;;;2.25;1.00;;;25.90;37.10;;;;;;4988971;28;114450;-79
2023/08/02 11:04:27;;;;;;;2.80;1.17;;;25.80;36.90;;;;;;4988030;28;115461;-80
2023/08/02 11:06:54;;;;;;;3.38;1.30;;;25.80;36.80;;;;;;4986470;28;114732;-79
2023/08/02 11:09:31;;;;;;;3.08;1.00;;;25.80;36.80;;;;;;4971242;28;114325;-78
2023/08/02 11:12:13;;;;;;;4.05;1.25;;;25.90;36.00;;;;;;4971189;28;114486;-79
2023/08/02 11:14:41;;;;;;;2.88;1.30;;;25.90;35.70;;;;;;4987947;28;115000;-79
2023/08/02 11:17:08;;;;;;;2.42;1.10;;;25.80;36.40;;;;;;4986493;28;115278;-78
2023/08/02 11:19:38;;;;;;;2.30;1.00;;;25.80;36.10;;;;;;4987293;28;114426;-79
2023/08/02 11:22:06;;;;;;;3.42;1.38;;;25.80;35.60;;;;;;4987336;28;114360;-79
2023/08/02 11:24:41;;;;;;;3.10;1.30;;;25.70;35.80;;;;;;4987969;28;114245;-78
2023/08/02 11:27:08;;;;;;;2.78;1.15;;;25.70;36.70;;;;;;4970095;28;114598;-78
2023/08/02 11:29:35;;;;;;;2.63;1.20;;;25.60;37.00;;;;;;4988687;28;114220;-78
2023/08/02 11:32:04;;;;;;;2.42;1.00;;;25.60;37.30;;;;;;4988385;28;114397;-78
2023/08/02 11:34:37;;;;;;;2.97;1.10;;;25.50;37.30;;;;;;4987821;28;114910;-79
2023/08/02 11:37:04;;;;;;;3.88;1.13;;;25.60;37.00;;;;;;4986750;28;115876;-80
2023/08/02 11:39:31;;;;;;;4.70;1.25;;;25.70;37.20;;;;;;4988345;28;114133;-80
2023/08/02 11:42:05;;;;;;;2.90;1.10;;;25.70;37.00;;;;;;4987356;28;114762;-79
2023/08/02 11:44:32;;;;;;;2.72;1.10;;;25.70;36.50;;;;;;4987303;28;114808;-79
2023/08/02 11:47:03;;;;;;;3.95;1.15;;;25.50;37.40;;;;;;4987917;28;114086;-80
2023/08/02 11:49:30;;;;;;;4.88;1.30;;;25.50;37.30;;;;;;4988199;28;114333;-78
2023/08/02 11:51:59;;;;;;;3.15;1.33;;;25.50;37.80;;;;;;4987449;28;114162;-79
2023/08/02 11:54:26;;;;;;;2.60;1.10;;;25.60;38.00;;;;;;4987374;28;114942;-80
2023/08/02 11:56:54;;;;;;;4.30;2.05;;;25.60;37.50;;;;;;4986068;28;115074;-79
2023/08/02 11:59:21;;;;;;;3.92;1.80;;;25.60;37.60;;;;;;4988231;28;114348;-79
2023/08/02 12:01:48;;;;;;;4.03;1.88;;;25.60;37.20;;;;;;4986718;28;114381;-80
2023/08/02 12:04:15;;;;;;;3.42;1.35;;;25.60;37.20;;;;;;4986205;28;115444;-79
2023/08/02 12:06:49;;;;;;;4.00;1.60;;;25.60;36.90;;;;;;4985520;28;115149;-79
2023/08/02 12:09:17;;;;;;;2.92;1.08;;;25.60;36.80;;;;;;4986913;28;114183;-78
2023/08/02 12:11:45;;;;;;;4.18;1.10;;;25.60;36.70;;;;;;4986295;28;114431;-79
2023/08/02 12:14:12;;;;;;;3.90;1.40;;;25.70;36.90;;;;;;4968219;28;115955;-78
2023/08/02 12:16:40;;;;;;;2.92;1.40;;;25.70;36.70;;;;;;4984261;28;115938;-78
2023/08/02 12:19:08;;;;;;;3.78;1.45;;;25.80;36.40;;;;;;4986940;28;114174;-77
2023/08/02 12:21:35;;;;;;;4.55;2.17;;;25.80;36.50;;;;;;4986026;28;114282;-77
2023/08/02 12:24:15;;;;;;;3.92;1.70;;;25.90;36.30;;;;;;4985796;28;114748;-78
2023/08/02 12:26:42;;;;;;;5.07;2.58;;;25.90;36.20;;;;;;4985919;28;114749;-78
2023/08/02 12:29:20;;;;;;;3.75;1.75;;;25.90;36.00;;;;;;4984817;28;114526;-79
2023/08/02 12:31:48;;;;;;;2.42;1.02;;;25.90;35.80;;;;;;4985633;28;114300;-78
2023/08/02 12:34:15;;;;;;;2.45;1.35;;;25.80;34.70;;;;;;4985889;28;115025;-79
2023/08/02 12:36:42;;;;;;;4.78;1.80;;;25.80;35.30;;;;;;4967594;28;114615;-79
2023/08/02 12:39:09;;;;;;;2.72;1.50;;;25.90;35.60;;;;;;4986646;28;114311;-78
2023/08/02 12:41:36;;;;;;;3.05;1.50;;;25.90;35.30;;;;;;4986348;28;114212;-78
2023/08/02 12:44:04;;;;;;;2.70;1.13;;;26.00;35.60;;;;;;4983320;28;115027;-78